Time;durP1;ratioP1;P1;durP2;ratioP2;P2;SDS_P1;SDS_P2;PMS_P1;PMS_P2;Temp;Humidity;BMP_temperature;BMP_pressure;BME280_temperature;BME280_humidity;BME280_pressure;Samples;Min_cycle;Max_cycle;Signal;HPM_P1;HPM_P2
2024/04/14 00:02:17;;;;;;;22.85;12.43;;;;;;;;;;6252502;22;20083;-94
2024/04/14 00:04:48;;;;;;;24.20;13.85;;;;;;;;;;6280200;22;20091;-95
2024/04/14 00:07:16;;;;;;;18.80;12.18;;;;;;;;;;6282977;22;20025;-95
2024/04/14 00:09:46;;;;;;;18.67;11.43;;;;;;;;;;6280506;22;20007;-94
2024/04/14 00:12:12;;;;;;;16.63;11.52;;;;;;;;;;6282992;22;20006;-94
2024/04/14 00:14:38;;;;;;;16.45;11.73;;;;;;;;;;6282710;22;20133;-95
2024/04/14 00:17:04;;;;;;;18.80;11.20;;;;;;;;;;6282438;22;20010;-94
2024/04/14 00:19:31;;;;;;;19.65;10.98;;;;;;;;;;6282855;22;20008;-95
2024/04/14 00:22:00;;;;;;;13.00;9.60;;;;;;;;;;6280090;22;20022;-94
2024/04/14 00:24:26;;;;;;;15.30;9.13;;;;;;;;;;6282202;22;20042;-94
2024/04/14 00:26:59;;;;;;;16.13;9.98;;;;;;;;;;6283222;22;20080;-95
2024/04/14 00:29:25;;;;;;;12.60;9.35;;;;;;;;;;6283433;22;20004;-96
2024/04/14 00:31:54;;;;;;;18.80;10.13;;;;;;;;;;6282676;22;20003;-96
2024/04/14 00:34:21;;;;;;;12.57;8.30;;;;;;;;;;6282375;22;20003;-95
2024/04/14 00:36:52;;;;;;;14.68;9.68;;;;;;;;;;6283000;22;19999;-95
2024/04/14 00:39:18;;;;;;;13.70;9.27;;;;;;;;;;6282913;22;20003;-95
2024/04/14 00:41:48;;;;;;;15.93;9.55;;;;;;;;;;6283474;22;20086;-93
2024/04/14 00:44:14;;;;;;;16.00;10.02;;;;;;;;;;6283556;22;20424;-95
2024/04/14 00:46:40;;;;;;;10.05;6.95;;;;;;;;;;6283675;22;20003;-95
2024/04/14 00:49:13;;;;;;;13.88;8.60;;;;;;;;;;6283207;22;20003;-94
2024/04/14 00:51:39;;;;;;;17.92;10.52;;;;;;;;;;6283985;22;20011;-95
2024/04/14 00:54:17;;;;;;;16.83;8.60;;;;;;;;;;6284243;22;20007;-95
2024/04/14 00:56:57;;;;;;;16.60;10.85;;;;;;;;;;6279926;22;20472;-94
2024/04/14 00:59:27;;;;;;;16.45;11.35;;;;;;;;;;6254502;22;20020;-93
2024/04/14 01:01:53;;;;;;;15.75;10.65;;;;;;;;;;6253334;22;20437;-95
2024/04/14 01:07:39;;;;;;;13.57;10.20;;;;;;;;;;6186582;23;20409;-93
2024/04/14 01:10:05;;;;;;;14.52;10.43;;;;;;;;;;6162459;23;20009;-93
2024/04/14 01:12:32;;;;;;;16.85;11.60;;;;;;;;;;6160188;23;20051;-94
2024/04/14 01:14:58;;;;;;;13.65;10.57;;;;;;;;;;6162336;23;20005;-95
2024/04/14 01:17:25;;;;;;;17.00;10.48;;;;;;;;;;6219963;22;19996;-95
2024/04/14 01:19:51;;;;;;;14.38;11.20;;;;;;;;;;6252169;22;20091;-94
2024/04/14 01:22:18;;;;;;;15.13;9.55;;;;;;;;;;6252911;22;20011;-96
2024/04/14 01:24:51;;;;;;;10.48;7.75;;;;;;;;;;6250666;22;20012;-95
2024/04/14 01:27:19;;;;;;;14.52;9.77;;;;;;;;;;6251260;22;20031;-94
2024/04/14 01:30:30;;;;;;;17.45;8.85;;;;;;;;;;6252359;22;20000;-95
2024/04/14 01:33:24;;;;;;;13.32;8.85;;;;;;;;;;6263762;22;20511;-93
2024/04/14 01:35:53;;;;;;;13.88;8.50;;;;;;;;;;6346377;22;20002;-93
2024/04/14 01:38:19;;;;;;;14.43;9.77;;;;;;;;;;6343699;22;20055;-94
2024/04/14 01:40:46;;;;;;;19.75;10.23;;;;;;;;;;6344263;22;20353;-94
2024/04/14 01:43:12;;;;;;;14.50;9.63;;;;;;;;;;6344001;22;20449;-94
2024/04/14 01:45:38;;;;;;;12.13;9.05;;;;;;;;;;6344286;22;20006;-93
2024/04/14 01:48:04;;;;;;;16.17;10.38;;;;;;;;;;6344038;22;19998;-94
2024/04/14 01:50:50;;;;;;;12.63;8.98;;;;;;;;;;6343827;22;19998;-95
2024/04/14 01:53:19;;;;;;;14.15;10.25;;;;;;;;;;6343767;22;20002;-93
2024/04/14 01:55:48;;;;;;;13.98;9.50;;;;;;;;;;6343647;22;20002;-93
2024/04/14 01:58:14;;;;;;;13.18;8.80;;;;;;;;;;6343947;22;20022;-94
2024/04/14 02:00:40;;;;;;;11.52;9.23;;;;;;;;;;6343792;22;20025;-94
2024/04/14 02:03:06;;;;;;;18.15;10.05;;;;;;;;;;6343704;22;20003;-94
2024/04/14 02:05:33;;;;;;;16.45;10.50;;;;;;;;;;6344087;22;20082;-94
2024/04/14 02:07:59;;;;;;;16.27;8.93;;;;;;;;;;6343988;22;20030;-94
2024/04/14 02:10:25;;;;;;;14.32;10.70;;;;;;;;;;6343744;22;20007;-93
2024/04/14 02:12:51;;;;;;;13.07;9.68;;;;;;;;;;6343580;22;19999;-93
2024/04/14 02:18:20;;;;;;;14.30;8.88;;;;;;;;;;6306250;22;20061;-93
2024/04/14 02:20:47;;;;;;;13.20;9.95;;;;;;;;;;6280469;22;20000;-95
2024/04/14 02:23:13;;;;;;;14.30;9.82;;;;;;;;;;6280800;22;20022;-94
2024/04/14 02:25:40;;;;;;;15.23;9.00;;;;;;;;;;6282217;22;20039;-93
2024/04/14 02:28:06;;;;;;;13.10;10.77;;;;;;;;;;6282454;22;20011;-93
2024/04/14 02:30:32;;;;;;;15.70;10.13;;;;;;;;;;6282399;22;20010;-93
2024/04/14 02:32:58;;;;;;;14.13;10.00;;;;;;;;;;6292428;22;20015;-94
2024/04/14 02:35:25;;;;;;;14.88;8.65;;;;;;;;;;6339320;22;20002;-93
2024/04/14 02:37:51;;;;;;;16.58;10.68;;;;;;;;;;6339207;22;20007;-94
2024/04/14 02:40:18;;;;;;;15.65;9.88;;;;;;;;;;6339463;22;20002;-93
2024/04/14 02:42:44;;;;;;;17.42;10.75;;;;;;;;;;6342326;22;20446;-94
2024/04/14 02:45:10;;;;;;;14.57;9.88;;;;;;;;;;6343368;22;20063;-94
2024/04/14 02:47:36;;;;;;;17.73;9.95;;;;;;;;;;6345494;22;19998;-94
2024/04/14 02:50:03;;;;;;;13.60;9.55;;;;;;;;;;6345210;22;20002;-94
2024/04/14 02:55:40;;;;;;;12.82;10.13;;;;;;;;;;6277694;22;20054;-94
2024/04/14 03:01:02;;;;;;;17.23;9.27;;;;;;;;;;6278270;22;20454;-93
2024/04/14 03:03:28;;;;;;;16.23;10.70;;;;;;;;;;6307369;22;20499;-93
2024/04/14 03:06:03;;;;;;;16.73;11.05;;;;;;;;;;6302511;22;20038;-93
2024/04/14 03:08:30;;;;;;;15.48;10.63;;;;;;;;;;6344622;22;20030;-94
2024/04/14 03:10:57;;;;;;;14.82;11.52;;;;;;;;;;6344926;22;20013;-93
2024/04/14 03:16:02;;;;;;;14.63;10.40;;;;;;;;;;6389938;22;20385;-94
2024/04/14 03:18:28;;;;;;;15.63;10.85;;;;;;;;;;6348839;22;20036;-93
2024/04/14 03:21:27;;;;;;;12.93;10.65;;;;;;;;;;6344832;22;19998;-94
2024/04/14 03:23:53;;;;;;;15.25;10.35;;;;;;;;;;6344715;22;20018;-95
2024/04/14 03:26:21;;;;;;;12.05;7.85;;;;;;;;;;6344921;22;20085;-92
2024/04/14 03:28:48;;;;;;;14.73;10.85;;;;;;;;;;6344793;22;20308;-93
2024/04/14 03:31:14;;;;;;;13.18;10.95;;;;;;;;;;6344820;22;20002;-93
2024/04/14 03:33:40;;;;;;;13.73;10.05;;;;;;;;;;6344563;22;20006;-93
2024/04/14 03:36:07;;;;;;;13.90;10.18;;;;;;;;;;6344785;22;20003;-94
2024/04/14 03:38:33;;;;;;;13.57;11.02;;;;;;;;;;6344998;22;20006;-95
2024/04/14 03:41:00;;;;;;;12.80;10.35;;;;;;;;;;6345120;22;20311;-94
2024/04/14 03:43:26;;;;;;;14.75;10.70;;;;;;;;;;6344494;22;20319;-94
2024/04/14 03:45:53;;;;;;;13.82;9.45;;;;;;;;;;6344767;22;20051;-94
2024/04/14 03:48:19;;;;;;;13.90;12.02;;;;;;;;;;6344981;22;19998;-95
2024/04/14 03:50:46;;;;;;;14.88;10.65;;;;;;;;;;6344668;22;20090;-94
2024/04/14 03:53:12;;;;;;;13.75;10.23;;;;;;;;;;6344957;22;20003;-95
2024/04/14 03:55:38;;;;;;;12.48;10.95;;;;;;;;;;6344520;22;20002;-94
2024/04/14 04:01:12;;;;;;;11.48;9.98;;;;;;;;;;6245889;22;20062;-94
2024/04/14 04:03:41;;;;;;;14.13;10.48;;;;;;;;;;6344171;22;20368;-94
2024/04/14 04:06:20;;;;;;;14.23;10.73;;;;;;;;;;6344410;22;20006;-94
2024/04/14 04:08:49;;;;;;;13.10;10.18;;;;;;;;;;6344776;22;19999;-94
2024/04/14 04:11:15;;;;;;;14.30;12.77;;;;;;;;;;6344317;22;20013;-94
2024/04/14 04:13:54;;;;;;;10.85;8.25;;;;;;;;;;6344073;22;20077;-94
2024/04/14 04:16:20;;;;;;;17.02;12.90;;;;;;;;;;6344478;22;20021;-94
2024/04/14 04:18:46;;;;;;;16.00;11.70;;;;;;;;;;6344580;22;20018;-94
2024/04/14 04:21:12;;;;;;;14.73;12.30;;;;;;;;;;6344321;22;20419;-93
2024/04/14 04:23:52;;;;;;;14.43;12.82;;;;;;;;;;6343145;22;20025;-95
2024/04/14 04:26:31;;;;;;;15.88;11.38;;;;;;;;;;6344498;22;20042;-94
2024/04/14 04:28:58;;;;;;;15.50;11.65;;;;;;;;;;6344290;22;20085;-93
2024/04/14 04:31:30;;;;;;;15.23;11.65;;;;;;;;;;6344432;22;20007;-94
2024/04/14 04:33:56;;;;;;;14.27;11.77;;;;;;;;;;6314667;22;20023;-92
2024/04/14 04:36:22;;;;;;;17.73;13.15;;;;;;;;;;6313198;22;20006;-94
2024/04/14 04:38:56;;;;;;;15.23;13.63;;;;;;;;;;6313214;22;20014;-95
2024/04/14 04:41:22;;;;;;;13.32;11.93;;;;;;;;;;6313122;22;20085;-95
2024/04/14 04:43:55;;;;;;;16.42;12.95;;;;;;;;;;6313092;22;20011;-95
2024/04/14 04:46:49;;;;;;;14.80;12.82;;;;;;;;;;6313346;22;19999;-95
2024/04/14 04:49:15;;;;;;;17.27;12.68;;;;;;;;;;6314041;22;20091;-95
2024/04/14 04:51:41;;;;;;;14.75;11.90;;;;;;;;;;6313451;22;19999;-95
2024/04/14 04:57:11;;;;;;;17.40;14.27;;;;;;;;;;6375960;22;20032;-95
2024/04/14 04:59:37;;;;;;;17.70;15.82;;;;;;;;;;6353340;22;20069;-94
2024/04/14 05:02:25;;;;;;;20.13;16.25;;;;;;;;;;6344963;22;20003;-95
2024/04/14 05:04:52;;;;;;;20.80;17.45;;;;;;;;;;6344253;22;20449;-94
2024/04/14 05:07:51;;;;;;;20.58;17.80;;;;;;;;;;6343962;22;20424;-95
2024/04/14 05:10:19;;;;;;;19.73;17.63;;;;;;;;;;6244226;23;20452;-95
2024/04/14 05:12:45;;;;;;;25.08;22.48;;;;;;;;;;6263484;22;20003;-95
2024/04/14 05:15:11;;;;;;;21.08;18.48;;;;;;;;;;6344018;22;20446;-96
2024/04/14 05:17:38;;;;;;;20.90;18.83;;;;;;;;;;6344604;22;20006;-95
2024/04/14 05:23:45;;;;;;;18.02;16.42;;;;;;;;;;5437837;25;20437;-93
2024/04/14 05:26:11;;;;;;;18.02;16.50;;;;;;;;;;5436068;26;19995;-95
2024/04/14 05:28:37;;;;;;;16.83;15.15;;;;;;;;;;5435890;26;20006;-94
2024/04/14 05:31:03;;;;;;;16.63;15.23;;;;;;;;;;5435825;26;19995;-93
2024/04/14 05:33:29;;;;;;;16.80;15.27;;;;;;;;;;5430930;21;20013;-94
2024/04/14 05:35:56;;;;;;;14.75;13.43;;;;;;;;;;5330393;26;20021;-94
2024/04/14 05:47:55;;;;;;;13.00;11.70;;;;;;;;;;5303084;27;20009;-94
2024/04/14 05:50:21;;;;;;;17.83;16.33;;;;;;;;;;5331152;26;20008;-96
2024/04/14 05:52:54;;;;;;;23.00;21.40;;;;;;;;;;5297296;27;19998;-92
2024/04/14 05:55:38;;;;;;;20.05;18.52;;;;;;;;;;5302283;27;20323;-94
2024/04/14 05:58:08;;;;;;;20.77;18.88;;;;;;;;;;5302352;26;20004;-90
2024/04/14 06:00:36;;;;;;;16.08;14.57;;;;;;;;;;5300940;27;19998;-90
2024/04/14 06:03:02;;;;;;;11.85;10.77;;;;;;;;;;5299232;27;19998;-92
2024/04/14 06:11:40;;;;;;;26.92;24.90;;;;;;;;;;5355736;26;20090;-91
2024/04/14 06:14:09;;;;;;;30.05;27.95;;;;;;;;;;5300250;27;20002;-93
2024/04/14 06:16:35;;;;;;;13.07;11.68;;;;;;;;;;5302290;27;20447;-93
2024/04/14 06:19:01;;;;;;;14.63;13.18;;;;;;;;;;5333064;27;20005;-93
2024/04/14 06:21:40;;;;;;;18.30;16.40;;;;;;;;;;5337312;26;20002;-94
2024/04/14 06:24:25;;;;;;;15.23;12.82;;;;;;;;;;5336940;26;20075;-93
2024/04/14 06:26:54;;;;;;;20.63;18.90;;;;;;;;;;5320052;26;20017;-94
2024/04/14 06:29:33;;;;;;;19.35;17.30;;;;;;;;;;5323042;27;20004;-94
2024/04/14 06:32:03;;;;;;;19.38;17.35;;;;;;;;;;5309385;27;20014;-93
2024/04/14 06:34:31;;;;;;;17.88;14.35;;;;;;;;;;5312448;27;20005;-92
2024/04/14 06:37:05;;;;;;;20.65;18.60;;;;;;;;;;5327118;26;19993;-93
2024/04/14 06:45:22;;;;;;;18.25;16.45;;;;;;;;;;5290321;27;20012;-94
2024/04/14 06:57:47;;;;;;;19.35;17.67;;;;;;;;;;5313938;27;20004;-92
2024/04/14 07:00:18;;;;;;;18.35;16.45;;;;;;;;;;5287509;27;20030;-94
2024/04/14 07:02:48;;;;;;;17.15;15.20;;;;;;;;;;5310371;27;20447;-94
2024/04/14 07:05:14;;;;;;;17.67;15.80;;;;;;;;;;5317551;27;20001;-94
2024/04/14 07:15:53;;;;;;;24.52;22.45;;;;;;;;;;5310234;27;20047;-92
2024/04/14 07:18:19;;;;;;;34.55;31.85;;;;;;;;;;5312183;27;20010;-93
2024/04/14 07:20:58;;;;;;;25.85;23.85;;;;;;;;;;5313326;27;20035;-92
2024/04/14 07:23:30;;;;;;;19.13;17.15;;;;;;;;;;5326329;26;20008;-93
2024/04/14 07:26:07;;;;;;;15.37;13.90;;;;;;;;;;5260129;27;20099;-94
2024/04/14 07:28:37;;;;;;;17.38;15.60;;;;;;;;;;5280662;27;20626;-93
2024/04/14 07:34:29;;;;;;;12.50;11.07;;;;;;;;;;5280904;27;20009;-93
2024/04/14 07:36:56;;;;;;;13.63;12.07;;;;;;;;;;5266204;27;20007;-92
2024/04/14 07:39:46;;;;;;;14.07;9.65;;;;;;;;;;5251609;27;20015;-93
2024/04/14 07:42:13;;;;;;;11.60;7.88;;;;;;;;;;5280971;27;20010;-93
2024/04/14 07:44:39;;;;;;;8.77;6.85;;;;;;;;;;5253522;27;20103;-93
2024/04/14 07:49:57;;;;;;;7.80;6.63;;;;;;;;;;5244642;27;20010;-94
2024/04/14 07:52:26;;;;;;;10.20;7.50;;;;;;;;;;5244110;27;20069;-93
2024/04/14 07:54:52;;;;;;;11.60;10.65;;;;;;;;;;5244210;27;20003;-93
2024/04/14 07:57:18;;;;;;;14.85;10.13;;;;;;;;;;5291194;27;20101;-90
2024/04/14 07:59:50;;;;;;;10.32;8.15;;;;;;;;;;5281296;27;20443;-94
2024/04/14 08:02:22;;;;;;;10.82;9.73;;;;;;;;;;5278991;27;20080;-91
2024/04/14 08:04:54;;;;;;;8.75;7.85;;;;;;;;;;5297790;27;20001;-91
2024/04/14 08:07:21;;;;;;;11.38;7.45;;;;;;;;;;5312830;26;19997;-93
2024/04/14 08:09:47;;;;;;;8.13;6.60;;;;;;;;;;5316218;26;20053;-93
2024/04/14 08:12:13;;;;;;;9.15;8.32;;;;;;;;;;5315977;26;19997;-94
2024/04/14 08:14:49;;;;;;;7.30;6.50;;;;;;;;;;5303276;27;20010;-95
2024/04/14 08:17:40;;;;;;;9.98;8.05;;;;;;;;;;5245062;27;20448;-92
2024/04/14 08:20:06;;;;;;;9.02;7.97;;;;;;;;;;5250114;27;20006;-94
2024/04/14 08:22:32;;;;;;;13.20;8.50;;;;;;;;;;5276404;27;19991;-94
2024/04/14 08:24:59;;;;;;;8.75;5.93;;;;;;;;;;5276757;27;19999;-94
2024/04/14 08:27:25;;;;;;;8.68;7.35;;;;;;;;;;5252713;27;20014;-94
2024/04/14 08:29:51;;;;;;;7.68;6.65;;;;;;;;;;5244663;27;20436;-96
2024/04/14 08:32:19;;;;;;;10.10;7.65;;;;;;;;;;5243767;27;20005;-95
2024/04/14 08:34:48;;;;;;;9.27;6.32;;;;;;;;;;5244052;27;20447;-95
2024/04/14 08:37:14;;;;;;;8.07;5.25;;;;;;;;;;5244194;27;20069;-95
2024/04/14 08:39:40;;;;;;;7.32;5.78;;;;;;;;;;5244697;27;20558;-94
2024/04/14 08:42:10;;;;;;;10.38;5.57;;;;;;;;;;5243831;27;20017;-94
2024/04/14 08:44:37;;;;;;;8.27;6.10;;;;;;;;;;5259476;27;20007;-95
2024/04/14 08:47:07;;;;;;;8.00;6.57;;;;;;;;;;5244167;27;20015;-96
2024/04/14 08:49:40;;;;;;;6.25;4.97;;;;;;;;;;5302974;26;20001;-96
2024/04/14 08:52:13;;;;;;;7.65;5.60;;;;;;;;;;5302181;27;20081;-95
2024/04/14 08:54:50;;;;;;;11.35;6.22;;;;;;;;;;5279565;27;20003;-96
2024/04/14 08:57:20;;;;;;;7.90;4.88;;;;;;;;;;5278311;27;20010;-96
2024/04/14 08:59:53;;;;;;;6.82;5.45;;;;;;;;;;5278977;27;20018;-95
2024/04/14 09:02:20;;;;;;;6.30;5.03;;;;;;;;;;5279429;27;19998;-95
2024/04/14 09:04:55;;;;;;;5.80;4.22;;;;;;;;;;5278543;27;20347;-95
2024/04/14 09:07:21;;;;;;;8.45;5.00;;;;;;;;;;5277548;27;20009;-96
2024/04/14 09:09:49;;;;;;;6.72;4.43;;;;;;;;;;5269143;27;20010;-96
2024/04/14 09:12:18;;;;;;;6.45;4.15;;;;;;;;;;5277685;27;20535;-94
2024/04/14 09:14:55;;;;;;;7.78;4.80;;;;;;;;;;5278411;27;20065;-94
2024/04/14 09:17:21;;;;;;;6.32;5.20;;;;;;;;;;5278875;27;20018;-96
2024/04/14 09:19:49;;;;;;;7.13;3.80;;;;;;;;;;5279149;27;19998;-95
2024/04/14 09:25:27;;;;;;;8.60;5.10;;;;;;;;;;5280629;27;20068;-95
2024/04/14 09:28:03;;;;;;;7.65;5.18;;;;;;;;;;5278365;27;20328;-96
2024/04/14 09:30:29;;;;;;;6.45;4.05;;;;;;;;;;5278483;27;20038;-94
2024/04/14 09:32:57;;;;;;;6.78;3.78;;;;;;;;;;5278690;27;20010;-96
2024/04/14 09:35:24;;;;;;;4.93;3.30;;;;;;;;;;5307702;26;20013;-95
2024/04/14 09:37:52;;;;;;;4.32;2.95;;;;;;;;;;5278326;27;20012;-95
2024/04/14 09:40:18;;;;;;;4.75;3.70;;;;;;;;;;5278494;27;20010;-95
2024/04/14 09:42:45;;;;;;;5.65;3.08;;;;;;;;;;5278567;27;20049;-96
2024/04/14 09:45:12;;;;;;;5.45;3.40;;;;;;;;;;5280966;27;20009;-94
2024/04/14 09:47:41;;;;;;;6.57;3.95;;;;;;;;;;5279593;27;20002;-96
2024/04/14 09:50:11;;;;;;;6.63;3.67;;;;;;;;;;5279008;27;20013;-96
2024/04/14 09:52:37;;;;;;;6.70;2.92;;;;;;;;;;5283022;27;20067;-95
2024/04/14 09:55:04;;;;;;;5.38;2.75;;;;;;;;;;5313363;26;20014;-96
2024/04/14 09:57:36;;;;;;;3.92;2.38;;;;;;;;;;5289175;27;20450;-93
2024/04/14 10:00:12;;;;;;;5.80;4.00;;;;;;;;;;5400747;21;20006;-96
2024/04/14 10:02:45;;;;;;;3.70;2.30;;;;;;;;;;5316695;26;20012;-94
2024/04/14 10:05:11;;;;;;;5.25;2.67;;;;;;;;;;5328141;26;19996;-93
2024/04/14 10:08:34;;;;;;;5.20;4.63;;;;;;;;;;5410925;21;20020;-91
2024/04/14 10:16:25;;;;;;;4.95;2.70;;;;;;;;;;5336388;26;19991;-95
2024/04/14 10:18:51;;;;;;;3.47;3.00;;;;;;;;;;5321541;26;19997;-95
2024/04/14 10:21:18;;;;;;;5.18;2.63;;;;;;;;;;5321714;26;20328;-94
2024/04/14 10:24:29;;;;;;;4.38;3.60;;;;;;;;;;5323896;26;19992;-95
2024/04/14 10:27:21;;;;;;;6.15;3.53;;;;;;;;;;5324142;26;19997;-95
2024/04/14 10:30:06;;;;;;;3.35;2.45;;;;;;;;;;5348986;26;19996;-96
2024/04/14 10:32:35;;;;;;;4.47;2.45;;;;;;;;;;5295081;27;19997;-96
2024/04/14 10:35:15;;;;;;;3.75;2.70;;;;;;;;;;5291337;26;19998;-96
2024/04/14 10:37:44;;;;;;;5.55;3.05;;;;;;;;;;5356513;26;20011;-96
2024/04/14 10:40:13;;;;;;;6.15;2.80;;;;;;;;;;5358208;26;20011;-95
2024/04/14 10:43:06;;;;;;;4.18;2.67;;;;;;;;;;5358616;26;20011;-96
2024/04/14 10:45:35;;;;;;;3.05;2.55;;;;;;;;;;5384968;26;19996;-96
2024/04/14 10:48:10;;;;;;;6.20;3.20;;;;;;;;;;5358751;26;20000;-96
2024/04/14 10:50:48;;;;;;;4.35;3.28;;;;;;;;;;5358447;26;19996;-95
2024/04/14 10:53:14;;;;;;;3.88;2.97;;;;;;;;;;5342041;26;20013;-96
2024/04/14 10:56:13;;;;;;;4.75;2.95;;;;;;;;;;5323389;26;20043;-95
2024/04/14 10:58:58;;;;;;;5.72;2.92;;;;;;;;;;5353666;26;20335;-95
2024/04/14 11:01:27;;;;;;;4.72;4.13;;;;;;;;;;5290528;26;20012;-95
2024/04/14 11:04:16;;;;;;;3.80;3.05;;;;;;;;;;5286706;27;19998;-96
2024/04/14 11:06:42;;;;;;;4.25;2.40;;;;;;;;;;5278324;27;20331;-94
2024/04/14 11:09:27;;;;;;;3.88;3.10;;;;;;;;;;5278401;27;19995;-94
2024/04/14 11:12:25;;;;;;;4.43;2.20;;;;;;;;;;5278980;27;20453;-94
2024/04/14 11:15:01;;;;;;;5.72;3.17;;;;;;;;;;5278828;27;20009;-94
2024/04/14 11:17:31;;;;;;;4.75;3.20;;;;;;;;;;5290373;27;20002;-93
2024/04/14 11:19:59;;;;;;;4.32;3.00;;;;;;;;;;5280608;27;20006;-94
2024/04/14 11:22:26;;;;;;;6.25;3.15;;;;;;;;;;5278945;27;20006;-93
2024/04/14 11:24:52;;;;;;;5.32;2.60;;;;;;;;;;5267297;27;19998;-91
2024/04/14 11:27:21;;;;;;;6.50;2.90;;;;;;;;;;5246992;27;20038;-93
2024/04/14 11:29:53;;;;;;;4.60;2.47;;;;;;;;;;5285377;27;20395;-90
2024/04/14 11:35:16;;;;;;;4.10;3.28;;;;;;;;;;5278275;27;20002;-94
2024/04/14 11:37:48;;;;;;;4.82;3.28;;;;;;;;;;5279360;27;20343;-94
2024/04/14 11:40:17;;;;;;;4.67;2.77;;;;;;;;;;5251549;27;20033;-93
2024/04/14 11:42:43;;;;;;;4.72;3.13;;;;;;;;;;5250925;27;19998;-93
2024/04/14 11:45:12;;;;;;;5.35;3.05;;;;;;;;;;5251390;27;20443;-94
2024/04/14 11:47:38;;;;;;;3.42;2.92;;;;;;;;;;5280922;27;20014;-95
2024/04/14 11:50:04;;;;;;;4.65;2.50;;;;;;;;;;5315105;26;20008;-93
2024/04/14 11:58:28;;;;;;;4.57;2.70;;;;;;;;;;5332270;26;20020;-96
2024/04/14 12:01:01;;;;;;;3.63;3.33;;;;;;;;;;5330725;26;20014;-96
2024/04/14 12:03:46;;;;;;;;;;;;;;;;;;;;;
2024/04/14 12:06:28;;;;;;;4.32;2.72;;;;;;;;;;5351593;26;19932;-96
2024/04/14 12:09:05;;;;;;;6.88;3.75;;;;;;;;;;5316912;27;19997;-95
2024/04/14 12:11:36;;;;;;;10.13;3.13;;;;;;;;;;5285391;27;19993;-96
2024/04/14 12:14:03;;;;;;;5.23;3.73;;;;;;;;;;5491695;21;20465;-95
2024/04/14 12:16:31;;;;;;;7.95;3.22;;;;;;;;;;5386988;26;20000;-95
2024/04/14 12:19:03;;;;;;;3.88;2.40;;;;;;;;;;5379584;26;20094;-94
2024/04/14 12:21:30;;;;;;;4.00;3.40;;;;;;;;;;5383154;26;20007;-96
2024/04/14 12:24:02;;;;;;;7.13;3.15;;;;;;;;;;5384049;26;20011;-96
2024/04/14 12:26:54;;;;;;;4.47;2.60;;;;;;;;;;5383607;26;20004;-96
2024/04/14 12:29:26;;;;;;;6.57;2.87;;;;;;;;;;5383214;26;20418;-96
2024/04/14 12:31:53;;;;;;;7.55;2.05;;;;;;;;;;5381412;26;20461;-95
2024/04/14 12:34:42;;;;;;;6.18;3.78;;;;;;;;;;5382863;26;19996;-95
2024/04/14 12:40:21;;;;;;;5.70;3.97;;;;;;;;;;5349042;26;20507;-96
2024/04/14 12:42:57;;;;;;;4.93;3.00;;;;;;;;;;5372580;26;20000;-95
2024/04/14 12:45:25;;;;;;;5.72;2.40;;;;;;;;;;5382484;26;20449;-96
2024/04/14 12:47:51;;;;;;;4.50;3.63;;;;;;;;;;5384351;26;20065;-95
2024/04/14 12:50:18;;;;;;;8.27;3.08;;;;;;;;;;5383838;26;20007;-95
2024/04/14 12:52:45;;;;;;;4.95;2.38;;;;;;;;;;5383729;26;20011;-95
2024/04/14 12:55:12;;;;;;;4.10;3.55;;;;;;;;;;5383670;26;20425;-94
2024/04/14 12:57:58;;;;;;;5.07;3.15;;;;;;;;;;5382670;26;19992;-96
2024/04/14 13:00:42;;;;;;;6.25;3.40;;;;;;;;;;5383308;26;19996;-96
2024/04/14 13:03:09;;;;;;;7.10;3.13;;;;;;;;;;5349683;26;20036;-94
2024/04/14 13:09:01;;;;;;;7.43;2.50;;;;;;;;;;5312177;27;20405;-96
2024/04/14 13:11:34;;;;;;;5.72;3.35;;;;;;;;;;5311251;27;20002;-90
2024/04/14 13:14:11;;;;;;;4.32;2.97;;;;;;;;;;5311391;27;20002;-92
2024/04/14 13:16:45;;;;;;;5.72;3.35;;;;;;;;;;5311760;27;20379;-93
2024/04/14 13:19:12;;;;;;;4.90;3.08;;;;;;;;;;5311594;27;20002;-94
2024/04/14 13:21:47;;;;;;;3.70;3.25;;;;;;;;;;5311032;27;20014;-93
2024/04/14 13:24:13;;;;;;;4.45;3.00;;;;;;;;;;5311486;27;20458;-94
2024/04/14 13:26:46;;;;;;;6.70;4.15;;;;;;;;;;5311782;27;19993;-90
2024/04/14 13:29:14;;;;;;;7.05;3.13;;;;;;;;;;5311543;27;20088;-92
2024/04/14 13:31:46;;;;;;;4.82;3.20;;;;;;;;;;5315868;26;20014;-93
2024/04/14 13:34:18;;;;;;;7.40;4.25;;;;;;;;;;5362749;26;20001;-91
2024/04/14 13:36:47;;;;;;;4.60;2.67;;;;;;;;;;5350606;26;20001;-95
2024/04/14 13:39:16;;;;;;;4.25;3.00;;;;;;;;;;5309779;26;20008;-91
2024/04/14 13:41:49;;;;;;;5.40;2.08;;;;;;;;;;5346792;26;20001;-95
2024/04/14 13:44:15;;;;;;;3.90;2.92;;;;;;;;;;5349883;26;20028;-92
2024/04/14 13:46:41;;;;;;;4.05;3.25;;;;;;;;;;5356936;26;20015;-92
2024/04/14 13:49:10;;;;;;;3.88;2.55;;;;;;;;;;5357250;26;20048;-93
2024/04/14 13:51:36;;;;;;;4.47;3.58;;;;;;;;;;5349297;26;20029;-93
2024/04/14 13:54:21;;;;;;;4.03;2.53;;;;;;;;;;5443295;21;20116;-91
2024/04/14 13:56:53;;;;;;;3.85;2.97;;;;;;;;;;5315296;27;20002;-92
2024/04/14 13:59:22;;;;;;;5.88;3.30;;;;;;;;;;5316873;27;20012;-92
2024/04/14 14:01:48;;;;;;;4.63;3.72;;;;;;;;;;5315078;27;20001;-94
2024/04/14 14:04:14;;;;;;;8.48;3.15;;;;;;;;;;5315157;27;20001;-92
2024/04/14 14:06:43;;;;;;;3.78;2.97;;;;;;;;;;5314958;27;20022;-92
2024/04/14 14:09:13;;;;;;;3.88;2.70;;;;;;;;;;5375396;22;20050;-93
2024/04/14 14:11:39;;;;;;;5.80;2.60;;;;;;;;;;5385166;26;19996;-92
2024/04/14 14:14:08;;;;;;;5.57;3.10;;;;;;;;;;5379569;26;20014;-93
2024/04/14 14:16:38;;;;;;;4.45;4.05;;;;;;;;;;5356759;26;20017;-94
2024/04/14 14:19:27;;;;;;;4.53;3.05;;;;;;;;;;5349686;26;20012;-96
2024/04/14 14:21:56;;;;;;;6.18;3.63;;;;;;;;;;5351912;26;20008;-94
2024/04/14 14:24:22;;;;;;;4.45;2.80;;;;;;;;;;5349891;26;20008;-94
2024/04/14 14:26:51;;;;;;;6.47;2.88;;;;;;;;;;5349655;26;20021;-94
2024/04/14 14:29:17;;;;;;;9.85;4.22;;;;;;;;;;5364825;26;20000;-95
2024/04/14 14:31:44;;;;;;;4.28;2.72;;;;;;;;;;5384642;26;20008;-96
2024/04/14 14:36:58;;;;;;;4.75;3.17;;;;;;;;;;5386854;26;20073;-95
2024/04/14 14:39:27;;;;;;;4.80;3.30;;;;;;;;;;5379873;26;20045;-94
2024/04/14 14:41:53;;;;;;;4.93;3.92;;;;;;;;;;5350424;26;20001;-95
2024/04/14 14:44:28;;;;;;;4.20;3.20;;;;;;;;;;5350970;26;19996;-95
2024/04/14 14:46:55;;;;;;;3.33;3.03;;;;;;;;;;5347563;26;19997;-95
2024/04/14 14:49:31;;;;;;;3.63;3.05;;;;;;;;;;5351660;26;20063;-96
2024/04/14 14:51:57;;;;;;;5.18;3.35;;;;;;;;;;5349289;26;20433;-95
2024/04/14 14:54:26;;;;;;;3.42;3.03;;;;;;;;;;5349050;26;20016;-95
2024/04/14 14:56:55;;;;;;;5.18;4.03;;;;;;;;;;5351535;26;20008;-94
2024/04/14 14:59:21;;;;;;;4.38;3.95;;;;;;;;;;5349502;26;20015;-94
2024/04/14 15:01:50;;;;;;;4.72;3.42;;;;;;;;;;5384879;26;20015;-95
2024/04/14 15:04:16;;;;;;;5.60;3.42;;;;;;;;;;5384912;26;20007;-93
2024/04/14 15:06:42;;;;;;;8.18;3.75;;;;;;;;;;5384661;26;20028;-92
2024/04/14 15:09:08;;;;;;;6.75;3.70;;;;;;;;;;5360492;26;20038;-93
2024/04/14 15:11:35;;;;;;;5.22;3.47;;;;;;;;;;5349492;26;20008;-92
2024/04/14 15:14:04;;;;;;;3.42;2.88;;;;;;;;;;5349473;26;20000;-93
2024/04/14 15:16:33;;;;;;;6.35;3.95;;;;;;;;;;5373132;26;20111;-91
2024/04/14 15:18:59;;;;;;;6.43;3.65;;;;;;;;;;5381414;26;20455;-92
2024/04/14 15:21:25;;;;;;;9.95;3.97;;;;;;;;;;5352604;26;20024;-91
2024/04/14 15:24:02;;;;;;;;;;;;;;;;;;;;;
2024/04/14 15:26:32;;;;;;;4.13;3.72;;;;;;;;;;5278544;27;19999;-91
2024/04/14 15:29:10;;;;;;;6.88;4.80;;;;;;;;;;5355532;26;20016;-92
2024/04/14 15:31:39;;;;;;;5.57;4.00;;;;;;;;;;5358181;26;20005;-91
2024/04/14 15:34:08;;;;;;;5.05;3.97;;;;;;;;;;5380209;26;20004;-95
2024/04/14 15:36:52;;;;;;;6.38;4.47;;;;;;;;;;5357026;26;20008;-93
2024/04/14 15:39:25;;;;;;;5.68;4.47;;;;;;;;;;5360893;26;20018;-93
2024/04/14 15:41:54;;;;;;;5.10;3.60;;;;;;;;;;5339952;26;20005;-95
2024/04/14 15:44:29;;;;;;;9.23;4.07;;;;;;;;;;5362254;26;20469;-96
2024/04/14 15:46:59;;;;;;;8.88;5.95;;;;;;;;;;5367276;26;20004;-96
2024/04/14 15:49:35;;;;;;;8.82;5.97;;;;;;;;;;5350251;26;20001;-93
2024/04/14 15:52:01;;;;;;;8.30;4.30;;;;;;;;;;5320738;26;20000;-91
2024/04/14 15:54:30;;;;;;;12.35;5.70;;;;;;;;;;5351115;26;20001;-90
2024/04/14 16:00:22;;;;;;;5.22;4.45;;;;;;;;;;5389749;26;20046;-95
2024/04/14 16:02:48;;;;;;;11.50;4.15;;;;;;;;;;5385702;26;19996;-91
2024/04/14 16:05:17;;;;;;;14.45;4.72;;;;;;;;;;5383682;26;19996;-93
2024/04/14 16:07:43;;;;;;;10.15;5.05;;;;;;;;;;5381777;26;20007;-92
2024/04/14 16:10:12;;;;;;;8.35;6.15;;;;;;;;;;5384862;26;20012;-93
2024/04/14 16:44:00;;;;;;;16.85;13.80;;;;;;;;;;6180618;21;20004;-95
2024/04/14 16:47:10;;;;;;;18.58;16.98;;;;;;;;;;5351835;26;19997;-92
2024/04/14 16:53:10;;;;;;;;;;;;;;;;;;;;;
2024/04/14 17:07:43;;;;;;;25.65;23.63;;;;;;;;;;5685709;21;20251;-95
2024/04/14 17:13:19;;;;;;;29.20;21.52;;;;;;;;;;5300908;26;20455;-93
2024/04/14 17:15:48;;;;;;;29.90;27.88;;;;;;;;;;5304831;27;20002;-95
2024/04/14 17:18:14;;;;;;;26.35;24.63;;;;;;;;;;5282093;27;20094;-95
2024/04/14 17:20:44;;;;;;;29.70;27.58;;;;;;;;;;5282852;27;20056;-94
2024/04/14 17:23:37;;;;;;;27.92;26.00;;;;;;;;;;5283211;27;20002;-93
2024/04/14 17:26:18;;;;;;;28.20;26.05;;;;;;;;;;5263833;27;20005;-95